Time;durP1;ratioP1;P1;durP2;ratioP2;P2;SDS_P1;SDS_P2;PMS_P1;PMS_P2;Temp;Humidity;BMP_temperature;BMP_pressure;BME280_temperature;BME280_humidity;BME280_pressure;Samples;Min_cycle;Max_cycle;Signal;HPM_P1;HPM_P2
2023/04/28 00:01:19;;;;;;;;;;;;;;;;;;5094989;28;19952;-68
2023/04/28 00:03:45;;;;;;;;;;;;;;;;;;5094448;28;20388;-68
2023/04/28 00:06:11;;;;;;;;;;;;;;;;;;5094971;28;19908;-69
2023/04/28 00:08:37;;;;;;;;;;;;;;;;;;5094469;28;19915;-68
2023/04/28 00:11:03;;;;;;;;;;;;;;;;;;5094965;28;19961;-68
2023/04/28 00:13:29;;;;;;;;;;;;;;;;;;5095013;28;20003;-68
2023/04/28 00:15:55;;;;;;;;;;;;;;;;;;5094141;28;19987;-68
2023/04/28 00:18:21;;;;;;;;;;;;;;;;;;5076518;28;19914;-69
2023/04/28 00:20:47;;;;;;;;;;;;;;;;;;5094667;28;20282;-68
2023/04/28 00:23:13;;;;;;;;;;;;;;;;;;5094176;28;19908;-68
2023/04/28 00:25:39;;;;;;;;;;;;;;;;;;5075923;28;19912;-68
2023/04/28 00:28:05;;;;;;;;;;;;;;;;;;5094815;28;19908;-68
2023/04/28 00:30:31;;;;;;;;;;;;;;;;;;5075950;28;20399;-68
2023/04/28 00:32:57;;;;;;;;;;;;;;;;;;5094495;28;20349;-68
2023/04/28 00:35:23;;;;;;;;;;;;;;;;;;5094359;28;19923;-68
2023/04/28 00:37:49;;;;;;;;;;;;;;;;;;5093918;28;19908;-68
2023/04/28 00:40:15;;;;;;;;;;;;;;;;;;5094432;28;19915;-68
2023/04/28 00:42:41;;;;;;;;;;;;;;;;;;5094295;28;19911;-68
2023/04/28 00:45:07;;;;;;;;;;;;;;;;;;5093944;28;19994;-68
2023/04/28 00:47:33;;;;;;;;;;;;;;;;;;5094139;28;19912;-68
2023/04/28 00:49:59;;;;;;;;;;;;;;;;;;5094339;28;19965;-66
2023/04/28 00:52:25;;;;;;;;;;;;;;;;;;5093649;28;19915;-66
2023/04/28 00:54:51;;;;;;;;;;;;;;;;;;5093988;28;19994;-69
2023/04/28 00:57:17;;;;;;;;;;;;;;;;;;5094139;28;19912;-68
2023/04/28 00:59:43;;;;;;;;;;;;;;;;;;5093688;28;19950;-68
2023/04/28 01:02:15;;;;;;;;;;;;;;;;;;5094089;28;19908;-68
2023/04/28 01:04:41;;;;;;;;;;;;;;;;;;5093956;28;19908;-66
2023/04/28 01:07:08;;;;;;;;;;;;;;;;;;5093470;28;20007;-67
2023/04/28 01:09:33;;;;;;;;;;;;;;;;;;5093903;28;19934;-67
2023/04/28 01:12:00;;;;;;;;;;;;;;;;;;5093551;28;19999;-66
2023/04/28 01:14:26;;;;;;;;;;;;;;;;;;5093714;28;19955;-65
2023/04/28 01:16:52;;;;;;;;;;;;;;;;;;5093739;28;20395;-67
2023/04/28 01:19:18;;;;;;;;;;;;;;;;;;5093471;28;20372;-66
2023/04/28 01:21:44;;;;;;;;;;;;;;;;;;5094087;28;19908;-66
2023/04/28 01:24:10;;;;;;;;;;;;;;;;;;5093738;28;19908;-67
2023/04/28 01:26:36;;;;;;;;;;;;;;;;;;5093562;28;20360;-67
2023/04/28 01:29:02;;;;;;;;;;;;;;;;;;5093749;28;20403;-67
2023/04/28 01:31:29;;;;;;;;;;;;;;;;;;5093626;28;20416;-67
2023/04/28 01:33:55;;;;;;;;;;;;;;;;;;5093212;28;20353;-66
2023/04/28 01:36:22;;;;;;;;;;;;;;;;;;5075416;28;19999;-66
2023/04/28 01:38:48;;;;;;;;;;;;;;;;;;5097752;28;19908;-67
2023/04/28 01:41:14;;;;;;;;;;;;;;;;;;5097308;28;20003;-67
2023/04/28 01:43:40;;;;;;;;;;;;;;;;;;5097688;28;19964;-67
2023/04/28 01:46:06;;;;;;;;;;;;;;;;;;5097847;28;19952;-67
2023/04/28 01:48:32;;;;;;;;;;;;;;;;;;5097137;28;20334;-67
2023/04/28 01:50:58;;;;;;;;;;;;;;;;;;5079341;28;19931;-67
2023/04/28 01:53:24;;;;;;;;;;;;;;;;;;5097470;28;19931;-67
2023/04/28 01:55:50;;;;;;;;;;;;;;;;;;5096930;28;19916;-67
2023/04/28 01:58:16;;;;;;;;;;;;;;;;;;5097336;28;20369;-66
2023/04/28 02:00:42;;;;;;;;;;;;;;;;;;5097306;28;19912;-67
2023/04/28 02:03:08;;;;;;;;;;;;;;;;;;5096809;28;19968;-67
2023/04/28 02:05:34;;;;;;;;;;;;;;;;;;5097333;28;19908;-67
2023/04/28 02:08:00;;;;;;;;;;;;;;;;;;5097130;28;19908;-67
2023/04/28 02:10:26;;;;;;;;;;;;;;;;;;5096665;28;19915;-67
2023/04/28 02:12:52;;;;;;;;;;;;;;;;;;5097104;28;19909;-67
2023/04/28 02:15:18;;;;;;;;;;;;;;;;;;5096369;28;19920;-67
2023/04/28 02:17:44;;;;;;;;;;;;;;;;;;5096944;28;19915;-67
2023/04/28 02:20:10;;;;;;;;;;;;;;;;;;5097222;28;19915;-67
2023/04/28 02:22:36;;;;;;;;;;;;;;;;;;5096665;28;19909;-66
2023/04/28 02:25:02;;;;;;;;;;;;;;;;;;5097422;28;20303;-67
2023/04/28 02:27:28;;;;;;;;;;;;;;;;;;5097088;28;20325;-67
2023/04/28 02:29:54;;;;;;;;;;;;;;;;;;5096249;28;19908;-67
2023/04/28 02:32:20;;;;;;;;;;;;;;;;;;5096650;28;19908;-67
2023/04/28 02:34:46;;;;;;;;;;;;;;;;;;5078373;28;19998;-67
2023/04/28 02:37:12;;;;;;;;;;;;;;;;;;5096268;28;19908;-67
2023/04/28 02:39:38;;;;;;;;;;;;;;;;;;5096572;28;20004;-67
2023/04/28 02:42:04;;;;;;;;;;;;;;;;;;5096570;28;20018;-69
2023/04/28 02:44:30;;;;;;;;;;;;;;;;;;5096161;28;20003;-68
2023/04/28 02:46:56;;;;;;;;;;;;;;;;;;5096709;28;20419;-67
2023/04/28 02:49:22;;;;;;;;;;;;;;;;;;5095954;28;20380;-67
2023/04/28 02:51:48;;;;;;;;;;;;;;;;;;5077809;28;19908;-67
2023/04/28 02:54:14;;;;;;;;;;;;;;;;;;5096234;28;19908;-67
2023/04/28 02:56:41;;;;;;;;;;;;;;;;;;5096222;28;19923;-67
2023/04/28 02:59:06;;;;;;;;;;;;;;;;;;5095850;28;19947;-67
2023/04/28 03:01:32;;;;;;;;;;;;;;;;;;5096159;28;19919;-67
2023/04/28 03:03:59;;;;;;;;;;;;;;;;;;5096139;28;20391;-67
2023/04/28 03:06:25;;;;;;;;;;;;;;;;;;5095690;28;20413;-67
2023/04/28 03:08:51;;;;;;;;;;;;;;;;;;5096061;28;19908;-67
2023/04/28 03:11:17;;;;;;;;;;;;;;;;;;5096212;28;20360;-67
2023/04/28 03:13:43;;;;;;;;;;;;;;;;;;5095522;28;19915;-67
2023/04/28 03:16:09;;;;;;;;;;;;;;;;;;5095790;28;20341;-67
2023/04/28 03:18:35;;;;;;;;;;;;;;;;;;5095426;28;19916;-67
2023/04/28 03:21:01;;;;;;;;;;;;;;;;;;5095887;28;19908;-67
2023/04/28 03:23:27;;;;;;;;;;;;;;;;;;5095705;28;19914;-67
2023/04/28 03:25:53;;;;;;;;;;;;;;;;;;5095312;28;20392;-67
2023/04/28 03:28:19;;;;;;;;;;;;;;;;;;5077461;28;19915;-68
2023/04/28 03:30:45;;;;;;;;;;;;;;;;;;5095642;28;19909;-67
2023/04/28 03:33:11;;;;;;;;;;;;;;;;;;5095145;28;19960;-67
2023/04/28 03:35:37;;;;;;;;;;;;;;;;;;5095445;28;20027;-67
2023/04/28 03:38:03;;;;;;;;;;;;;;;;;;5077282;28;19908;-67
2023/04/28 03:40:29;;;;;;;;;;;;;;;;;;5095044;28;19919;-68
2023/04/28 03:42:56;;;;;;;;;;;;;;;;;;5095428;28;20010;-67
2023/04/28 03:45:22;;;;;;;;;;;;;;;;;;5095497;28;19909;-69
2023/04/28 03:47:48;;;;;;;;;;;;;;;;;;5094928;28;20284;-69
2023/04/28 03:50:14;;;;;;;;;;;;;;;;;;5095188;28;19994;-70
2023/04/28 03:52:40;;;;;;;;;;;;;;;;;;5095186;28;19918;-68
2023/04/28 03:55:06;;;;;;;;;;;;;;;;;;5076786;28;19916;-67
2023/04/28 03:57:31;;;;;;;;;;;;;;;;;;5094990;28;20016;-67
2023/04/28 03:59:57;;;;;;;;;;;;;;;;;;5094202;28;19911;-67
2023/04/28 04:02:23;;;;;;;;;;;;;;;;;;5094584;28;20334;-67
2023/04/28 04:04:49;;;;;;;;;;;;;;;;;;5095000;28;20317;-68
2023/04/28 04:07:15;;;;;;;;;;;;;;;;;;5094936;28;19908;-68
2023/04/28 04:09:41;;;;;;;;;;;;;;;;;;5094612;28;19998;-69
2023/04/28 04:12:07;;;;;;;;;;;;;;;;;;5087397;28;19965;-67
2023/04/28 04:14:33;;;;;;;;;;;;;;;;;;5089002;28;20336;-66
2023/04/28 04:17:00;;;;;;;;;;;;;;;;;;5094304;28;19976;-67
2023/04/28 04:19:26;;;;;;;;;;;;;;;;;;5076358;28;19994;-67
2023/04/28 04:21:52;;;;;;;;;;;;;;;;;;5094136;28;20390;-68
2023/04/28 04:24:18;;;;;;;;;;;;;;;;;;5094549;28;19934;-67
2023/04/28 04:26:44;;;;;;;;;;;;;;;;;;5076310;28;19908;-67
2023/04/28 04:29:10;;;;;;;;;;;;;;;;;;5094070;28;19915;-67
2023/04/28 04:31:36;;;;;;;;;;;;;;;;;;5094518;28;19908;-67
2023/04/28 04:34:02;;;;;;;;;;;;;;;;;;5074746;28;20306;-67
2023/04/28 04:36:28;;;;;;;;;;;;;;;;;;5092846;28;19916;-67
2023/04/28 04:38:54;;;;;;;;;;;;;;;;;;5094373;28;19908;-67
2023/04/28 04:41:20;;;;;;;;;;;;;;;;;;5092800;28;19908;-67
2023/04/28 04:43:46;;;;;;;;;;;;;;;;;;5094195;28;19962;-67
2023/04/28 04:46:12;;;;;;;;;;;;;;;;;;5092618;28;19912;-68
2023/04/28 04:48:38;;;;;;;;;;;;;;;;;;5092205;28;19915;-67
2023/04/28 04:51:04;;;;;;;;;;;;;;;;;;5091682;28;19908;-67
2023/04/28 04:53:30;;;;;;;;;;;;;;;;;;5092415;28;19908;-67
2023/04/28 04:55:56;;;;;;;;;;;;;;;;;;5091834;28;20292;-67
2023/04/28 04:58:22;;;;;;;;;;;;;;;;;;5092312;28;19919;-67
2023/04/28 05:00:48;;;;;;;;;;;;;;;;;;5093472;28;19908;-69
2023/04/28 05:03:15;;;;;;;;;;;;;;;;;;5094129;28;20002;-69
2023/04/28 05:05:41;;;;;;;;;;;;;;;;;;5093674;28;19908;-68
2023/04/28 05:08:07;;;;;;;;;;;;;;;;;;5094303;28;19909;-68
2023/04/28 05:10:33;;;;;;;;;;;;;;;;;;5093762;28;20295;-68
2023/04/28 05:12:59;;;;;;;;;;;;;;;;;;5089560;28;19919;-68
2023/04/28 05:15:25;;;;;;;;;;;;;;;;;;5092534;28;20396;-68
2023/04/28 05:17:51;;;;;;;;;;;;;;;;;;5092697;28;19959;-65
2023/04/28 05:20:17;;;;;;;;;;;;;;;;;;5090120;28;19965;-66
2023/04/28 05:22:43;;;;;;;;;;;;;;;;;;5074709;28;19923;-67
2023/04/28 05:25:09;;;;;;;;;;;;;;;;;;5082279;28;19912;-66
2023/04/28 05:27:39;;;;;;;;;;;;;;;;;;5067163;28;20004;-66
2023/04/28 05:30:22;;;;;;;;;;;;;;;;;;5089508;28;20010;-65
2023/04/28 05:32:48;;;;;;;;;;;;;;;;;;5090699;28;19912;-65
2023/04/28 05:35:14;;;;;;;;;;;;;;;;;;5090998;28;20257;-64
2023/04/28 05:37:42;;;;;;;;;;;;;;;;;;5092794;28;20338;-64
2023/04/28 05:40:08;;;;;;;;;;;;;;;;;;5091072;28;20372;-64
2023/04/28 05:42:34;;;;;;;;;;;;;;;;;;5089566;28;19920;-67
2023/04/28 05:45:00;;;;;;;;;;;;;;;;;;5083984;28;19920;-65
2023/04/28 05:47:26;;;;;;;;;;;;;;;;;;5097819;28;19946;-66
2023/04/28 05:49:52;;;;;;;;;;;;;;;;;;5088605;28;19969;-66
2023/04/28 05:52:18;;;;;;;;;;;;;;;;;;5090508;28;19951;-65
2023/04/28 05:54:44;;;;;;;;;;;;;;;;;;5091355;28;19915;-67
2023/04/28 05:57:10;;;;;;;;;;;;;;;;;;5073520;28;19927;-66
2023/04/28 05:59:35;;;;;;;;;;;;;;;;;;5084782;28;19913;-65
2023/04/28 06:02:01;;;;;;;;;;;;;;;;;;5066686;28;19919;-66
2023/04/28 06:04:27;;;;;;;;;;;;;;;;;;5091484;28;19994;-66
2023/04/28 06:06:53;;;;;;;;;;;;;;;;;;5085667;28;19912;-65
2023/04/28 06:09:19;;;;;;;;;;;;;;;;;;5087965;28;20279;-65
2023/04/28 06:11:45;;;;;;;;;;;;;;;;;;5074180;28;19908;-64
2023/04/28 06:14:11;;;;;;;;;;;;;;;;;;5091171;28;20414;-67
2023/04/28 06:16:37;;;;;;;;;;;;;;;;;;5091898;28;19974;-65
2023/04/28 06:19:03;;;;;;;;;;;;;;;;;;5091251;28;19912;-65
2023/04/28 06:21:31;;;;;;;;;;;;;;;;;;5082484;28;19965;-65
2023/04/28 06:23:57;;;;;;;;;;;;;;;;;;5097004;28;19916;-64
2023/04/28 06:26:23;;;;;;;;;;;;;;;;;;5072539;28;19916;-65
2023/04/28 06:28:49;;;;;;;;;;;;;;;;;;5088796;28;20192;-65
2023/04/28 06:31:15;;;;;;;;;;;;;;;;;;5079517;28;20397;-65
2023/04/28 06:33:41;;;;;;;;;;;;;;;;;;5093559;28;19991;-65
2023/04/28 06:36:07;;;;;;;;;;;;;;;;;;5093282;28;19920;-66
2023/04/28 06:38:33;;;;;;;;;;;;;;;;;;5075261;28;19912;-66
2023/04/28 06:40:59;;;;;;;;;;;;;;;;;;5093089;28;19916;-67
2023/04/28 06:43:25;;;;;;;;;;;;;;;;;;5073624;28;19912;-66
2023/04/28 06:45:51;;;;;;;;;;;;;;;;;;5071499;28;20065;-67
2023/04/28 06:48:17;;;;;;;;;;;;;;;;;;5092627;28;20578;-66
2023/04/28 06:50:43;;;;;;;;;;;;;;;;;;5093677;28;19912;-66
2023/04/28 06:53:10;;;;;;;;;;;;;;;;;;5076396;28;19927;-65
2023/04/28 06:55:36;;;;;;;;;;;;;;;;;;5094649;28;19930;-65
2023/04/28 06:58:04;;;;;;;;;;;;;;;;;;5090237;28;20382;-63
2023/04/28 07:00:33;;;;;;;;;;;;;;;;;;5089270;28;19961;-64
2023/04/28 07:03:08;;;;;;;;;;;;;;;;;;5087331;28;20330;-63
2023/04/28 07:05:36;;;;;;;;;;;;;;;;;;5070394;28;19912;-64
2023/04/28 07:08:02;;;;;;;;;;;;;;;;;;5092677;28;19918;-64
2023/04/28 07:10:28;;;;;;;;;;;;;;;;;;5088889;28;20003;-65
2023/04/28 07:12:54;;;;;;;;;;;;;;;;;;5081478;28;19913;-66
2023/04/28 07:15:20;;;;;;;;;;;;;;;;;;5069770;28;19927;-64
2023/04/28 07:17:46;;;;;;;;;;;;;;;;;;5090797;28;20293;-64
2023/04/28 07:20:12;;;;;;;;;;;;;;;;;;5083477;28;19930;-64
2023/04/28 07:22:38;;;;;;;;;;;;;;;;;;5087526;28;20569;-64
2023/04/28 07:25:04;;;;;;;;;;;;;;;;;;5069525;28;19912;-65
2023/04/28 07:27:31;;;;;;;;;;;;;;;;;;5083927;28;19912;-64
2023/04/28 07:29:57;;;;;;;;;;;;;;;;;;5079134;28;19912;-64
2023/04/28 07:32:32;;;;;;;;;;;;;;;;;;5079990;28;19916;-63
2023/04/28 07:34:58;;;;;;;;;;;;;;;;;;5083480;28;19920;-64
2023/04/28 07:37:24;;;;;;;;;;;;;;;;;;5086289;28;19925;-63
2023/04/28 07:39:50;;;;;;;;;;;;;;;;;;5083312;28;19969;-64
2023/04/28 07:42:17;;;;;;;;;;;;;;;;;;5090474;28;19947;-64
2023/04/28 07:44:43;;;;;;;;;;;;;;;;;;5087634;28;19966;-67
2023/04/28 07:47:09;;;;;;;;;;;;;;;;;;5070355;28;20332;-65
2023/04/28 07:49:35;;;;;;;;;;;;;;;;;;5089299;28;20622;-66
2023/04/28 07:52:01;;;;;;;;;;;;;;;;;;5090446;28;19915;-64
2023/04/28 07:54:27;;;;;;;;;;;;;;;;;;5092266;28;19912;-65
2023/04/28 07:56:53;;;;;;;;;;;;;;;;;;5090590;28;19942;-66
2023/04/28 07:59:19;;;;;;;;;;;;;;;;;;5068969;28;20309;-65
2023/04/28 08:01:45;;;;;;;;;;;;;;;;;;5081748;28;20321;-64
2023/04/28 08:04:11;;;;;;;;;;;;;;;;;;5084605;28;19920;-64
2023/04/28 08:06:38;;;;;;;;;;;;;;;;;;5064394;28;19916;-64
2023/04/28 08:09:05;;;;;;;;;;;;;;;;;;5088455;28;20372;-64
2023/04/28 08:11:31;;;;;;;;;;;;;;;;;;5067814;28;19908;-64
2023/04/28 08:14:01;;;;;;;;;;;;;;;;;;5072082;28;19991;-64
2023/04/28 08:16:27;;;;;;;;;;;;;;;;;;5090948;28;19940;-64
2023/04/28 08:18:53;;;;;;;;;;;;;;;;;;5088901;28;19912;-64
2023/04/28 08:21:20;;;;;;;;;;;;;;;;;;5086395;28;19912;-64
2023/04/28 08:23:46;;;;;;;;;;;;;;;;;;5088401;28;20368;-65
2023/04/28 08:26:11;;;;;;;;;;;;;;;;;;5090722;28;19919;-63
2023/04/28 08:28:38;;;;;;;;;;;;;;;;;;5092283;28;19959;-64
2023/04/28 08:31:05;;;;;;;;;;;;;;;;;;5090197;28;19912;-64
2023/04/28 08:33:31;;;;;;;;;;;;;;;;;;5089646;28;19923;-64
2023/04/28 08:35:57;;;;;;;;;;;;;;;;;;5086926;28;19920;-65
2023/04/28 08:38:24;;;;;;;;;;;;;;;;;;5091733;28;19916;-64
2023/04/28 08:40:50;;;;;;;;;;;;;;;;;;5091160;28;20011;-65
2023/04/28 08:43:16;;;;;;;;;;;;;;;;;;5089228;28;19912;-65
2023/04/28 08:45:43;;;;;;;;;;;;;;;;;;5059718;28;20372;-64
2023/04/28 08:49:29;;;;;;;;;;;;;;;;;;5141741;27;19920;-64
2023/04/28 08:52:36;;;;;;;;;;;;;;;;;;5080909;27;2090232;-65
2023/04/28 08:57:59;;;;;;;;;;;;;;;;;;5128434;27;19924;-65
2023/04/28 09:00:25;;;;;;;;;;;;;;;;;;5121822;28;20420;-64
2023/04/28 09:02:51;;;;;;;;;;;;;;;;;;5114098;28;19963;-65
2023/04/28 09:07:38;;;;;;;;;;;;;;;;;;5081038;27;19927;-63
2023/04/28 09:11:26;;;;;;;;;;;;;;;;;;5086114;27;19927;-66
2023/04/28 09:13:53;;;;;;;;;;;;;;;;;;5072223;28;19917;-65
2023/04/28 09:16:20;;;;;;;;;;;;;;;;;;5062413;28;19912;-66
2023/04/28 09:20:03;;;;;;;;;;;;;;;;;;5106737;27;19920;-66
2023/04/28 09:25:50;;;;;;;;;;;;;;;;;;5074234;27;19923;-64
2023/04/28 09:29:52;;;;;;;;;;;;;;;;;;5086345;27;19943;-66
2023/04/28 09:32:18;;;;;;;;;;;;;;;;;;5066898;28;19920;-67
2023/04/28 09:35:44;;;;;;;;;;;;;;;;;;5087228;27;20440;-65
2023/04/28 09:39:11;;;;;;;;;;;;;;;;;;5105825;27;19920;-64
2023/04/28 09:41:40;;;;;;;;;;;;;;;;;;5107401;28;19912;-66
2023/04/28 09:44:06;;;;;;;;;;;;;;;;;;5106132;27;19920;-65
2023/04/28 09:46:32;;;;;;;;;;;;;;;;;;5103608;28;19989;-65
2023/04/28 09:48:58;;;;;;;;;;;;;;;;;;5107038;28;19924;-64
2023/04/28 09:55:09;;;;;;;;;;;;;;;;;;5099547;27;20294;-65
2023/04/28 09:57:35;;;;;;;;;;;;;;;;;;5090749;28;19919;-66
2023/04/28 10:03:15;;;;;;;;;;;;;;;;;;5107433;27;19922;-66
2023/04/28 10:08:05;;;;;;;;;;;;;;;;;;5141925;27;19927;-65
2023/04/28 10:10:31;;;;;;;;;;;;;;;;;;5134321;27;19959;-64
2023/04/28 10:12:59;;;;;;;;;;;;;;;;;;5128853;27;19918;-66
2023/04/28 10:17:20;;;;;;;;;;;;;;;;;;5088406;27;19923;-64
2023/04/28 10:22:11;;;;;;;;;;;;;;;;;;5128758;27;20322;-64
2023/04/28 10:24:37;;;;;;;;;;;;;;;;;;5124497;28;19919;-65
2023/04/28 10:27:04;;;;;;;;;;;;;;;;;;5099211;28;20003;-64
2023/04/28 10:29:31;;;;;;;;;;;;;;;;;;5115111;28;19919;-66
2023/04/28 10:33:27;;;;;;;;;;;;;;;;;;5128670;27;20295;-63
2023/04/28 10:35:53;;;;;;;;;;;;;;;;;;5124468;28;20010;-63
2023/04/28 10:38:22;;;;;;;;;;;;;;;;;;5117222;28;19990;-66
2023/04/28 10:41:04;;;;;;;;;;;;;;;;;;5083387;27;19926;-66
2023/04/28 10:43:31;;;;;;;;;;;;;;;;;;5064792;28;19959;-65
2023/04/28 10:46:00;;;;;;;;;;;;;;;;;;5067598;28;19919;-63
2023/04/28 10:48:26;;;;;;;;;;;;;;;;;;5066594;28;19909;-64
2023/04/28 10:50:51;;;;;;;;;;;;;;;;;;5083322;28;20406;-65
2023/04/28 10:57:57;;;;;;;;;;;;;;;;;;5074154;27;2093316;-63
2023/04/28 11:00:23;;;;;;;;;;;;;;;;;;5150251;27;19964;-63
2023/04/28 11:02:49;;;;;;;;;;;;;;;;;;5151204;27;19912;-63
2023/04/28 11:05:17;;;;;;;;;;;;;;;;;;5135307;27;19907;-65
2023/04/28 11:07:43;;;;;;;;;;;;;;;;;;5131007;28;20303;-65
2023/04/28 11:11:18;;;;;;;;;;;;;;;;;;5087964;27;19996;-64
2023/04/28 11:13:45;;;;;;;;;;;;;;;;;;5083500;28;19919;-64
2023/04/28 11:16:11;;;;;;;;;;;;;;;;;;5082134;28;19913;-65
2023/04/28 11:18:37;;;;;;;;;;;;;;;;;;5068448;28;19958;-65
2023/04/28 11:21:03;;;;;;;;;;;;;;;;;;5068581;28;19916;-65
2023/04/28 11:23:29;;;;;;;;;;;;;;;;;;5106498;28;20324;-64
2023/04/28 11:25:56;;;;;;;;;;;;;;;;;;5073227;28;19912;-65
2023/04/28 11:28:42;;;;;;;;;;;;;;;;;;5070923;27;19924;-65
2023/04/28 11:31:08;;;;;;;;;;;;;;;;;;5069891;28;20011;-64
2023/04/28 11:35:52;;;;;;;;;;;;;;;;;;5090014;27;19920;-65
2023/04/28 11:40:04;;;;;;;;;;;;;;;;;;5149412;27;19919;-65
2023/04/28 11:42:31;;;;;;;;;;;;;;;;;;5151119;27;19912;-65
2023/04/28 11:44:57;;;;;;;;;;;;;;;;;;5148476;27;19915;-66
2023/04/28 11:47:23;;;;;;;;;;;;;;;;;;5145824;27;19956;-66
2023/04/28 11:49:49;;;;;;;;;;;;;;;;;;5146703;27;19918;-65
2023/04/28 11:52:15;;;;;;;;;;;;;;;;;;5150450;27;19984;-65
2023/04/28 11:55:44;;;;;;;;;;;;;;;;;;5110241;27;19916;-65
2023/04/28 11:58:10;;;;;;;;;;;;;;;;;;5108692;28;19946;-65
2023/04/28 12:02:58;;;;;;;;;;;;;;;;;;5090166;28;19923;-67
2023/04/28 12:05:24;;;;;;;;;;;;;;;;;;5089223;28;19919;-67
2023/04/28 12:07:50;;;;;;;;;;;;;;;;;;5090441;28;19912;-67
2023/04/28 12:10:17;;;;;;;;;;;;;;;;;;5089252;28;20003;-67
2023/04/28 12:12:46;;;;;;;;;;;;;;;;;;5090427;28;19912;-66
2023/04/28 12:15:12;;;;;;;;;;;;;;;;;;5089982;28;19908;-68
2023/04/28 12:17:38;;;;;;;;;;;;;;;;;;5089324;28;19913;-67
2023/04/28 12:20:04;;;;;;;;;;;;;;;;;;5088972;28;19912;-68
2023/04/28 12:22:30;;;;;;;;;;;;;;;;;;5089550;28;19943;-69
2023/04/28 12:24:55;;;;;;;;;;;;;;;;;;5086509;28;19997;-67
2023/04/28 12:27:23;;;;;;;;;;;;;;;;;;5087567;28;19909;-68
2023/04/28 12:29:49;;;;;;;;;;;;;;;;;;5081528;28;19966;-67
2023/04/28 12:35:00;;;;;;;;;;;;;;;;;;5069032;28;19924;-67
2023/04/28 12:37:27;;;;;;;;;;;;;;;;;;5087150;28;20300;-69
2023/04/28 12:39:53;;;;;;;;;;;;;;;;;;5084953;28;19931;-69
2023/04/28 12:42:21;;;;;;;;;;;;;;;;;;5085771;28;19917;-70
2023/04/28 12:44:47;;;;;;;;;;;;;;;;;;5086395;28;19912;-69
2023/04/28 12:47:14;;;;;;;;;;;;;;;;;;5087462;28;20327;-68
2023/04/28 12:49:40;;;;;;;;;;;;;;;;;;5088183;28;20302;-70
2023/04/28 12:52:37;;;;;;;;;;;;;;;;;;5108916;27;19920;-67
2023/04/28 12:55:03;;;;;;;;;;;;;;;;;;5097065;28;19912;-68
2023/04/28 12:57:29;;;;;;;;;;;;;;;;;;5107622;28;20368;-65
2023/04/28 12:59:56;;;;;;;;;;;;;;;;;;5104553;28;19959;-67
2023/04/28 13:02:21;;;;;;;;;;;;;;;;;;5108120;28;20149;-68
2023/04/28 13:04:47;;;;;;;;;;;;;;;;;;5108024;28;19908;-67
2023/04/28 13:07:13;;;;;;;;;;;;;;;;;;5111275;28;19955;-67
2023/04/28 13:09:41;;;;;;;;;;;;;;;;;;5110897;28;19908;-67
2023/04/28 13:12:07;;;;;;;;;;;;;;;;;;5111133;28;19959;-67
2023/04/28 13:14:33;;;;;;;;;;;;;;;;;;5111270;28;20395;-67
2023/04/28 13:16:59;;;;;;;;;;;;;;;;;;5110790;28;19943;-67
2023/04/28 13:19:26;;;;;;;;;;;;;;;;;;5111145;28;19915;-68
2023/04/28 13:21:53;;;;;;;;;;;;;;;;;;5110734;28;19908;-67
2023/04/28 13:24:18;;;;;;;;;;;;;;;;;;5110606;28;20307;-67
2023/04/28 13:27:02;;;;;;;;;;;;;;;;;;5092071;27;19917;-67
2023/04/28 13:29:28;;;;;;;;;;;;;;;;;;5091034;28;19912;-67
2023/04/28 13:31:54;;;;;;;;;;;;;;;;;;5090782;28;19966;-67
2023/04/28 13:34:20;;;;;;;;;;;;;;;;;;5091246;28;19912;-67
2023/04/28 13:36:49;;;;;;;;;;;;;;;;;;5091031;28;19909;-66
2023/04/28 13:39:15;;;;;;;;;;;;;;;;;;5090766;28;19912;-66
2023/04/28 13:41:41;;;;;;;;;;;;;;;;;;5091077;28;19908;-68
2023/04/28 13:44:08;;;;;;;;;;;;;;;;;;5090976;28;19955;-67
2023/04/28 13:46:34;;;;;;;;;;;;;;;;;;5090434;28;19967;-67
2023/04/28 13:49:00;;;;;;;;;;;;;;;;;;5090831;28;19912;-67
2023/04/28 13:51:39;;;;;;;;;;;;;;;;;;5152855;27;19915;-67
2023/04/28 13:54:10;;;;;;;;;;;;;;;;;;5134187;27;19919;-67
2023/04/28 13:56:36;;;;;;;;;;;;;;;;;;5152676;27;19986;-67
2023/04/28 13:59:02;;;;;;;;;;;;;;;;;;5152306;27;19953;-67
2023/04/28 14:01:28;;;;;;;;;;;;;;;;;;5152581;27;19914;-67
2023/04/28 14:05:05;;;;;;;;;;;;;;;;;;5153012;27;19921;-67
2023/04/28 14:07:31;;;;;;;;;;;;;;;;;;5152413;27;19950;-68
2023/04/28 14:09:57;;;;;;;;;;;;;;;;;;5152813;27;19908;-67
2023/04/28 14:12:23;;;;;;;;;;;;;;;;;;5152681;27;19907;-67
2023/04/28 14:14:48;;;;;;;;;;;;;;;;;;5152188;27;19907;-67
2023/04/28 14:19:25;;;;;;;;;;;;;;;;;;5091612;27;20265;-67
2023/04/28 14:21:51;;;;;;;;;;;;;;;;;;5089465;28;19913;-67
2023/04/28 14:24:18;;;;;;;;;;;;;;;;;;5091322;28;19958;-67
2023/04/28 14:26:45;;;;;;;;;;;;;;;;;;5090896;28;19935;-67
2023/04/28 14:29:11;;;;;;;;;;;;;;;;;;5091067;28;19920;-67
2023/04/28 14:31:37;;;;;;;;;;;;;;;;;;5090965;28;19909;-67
2023/04/28 14:34:03;;;;;;;;;;;;;;;;;;5090517;28;19912;-67
2023/04/28 14:36:29;;;;;;;;;;;;;;;;;;5090920;28;19909;-67
2023/04/28 14:38:55;;;;;;;;;;;;;;;;;;5090868;28;19916;-67
2023/04/28 14:41:20;;;;;;;;;;;;;;;;;;5090465;28;19931;-67
2023/04/28 14:45:20;;;;;;;;;;;;;;;;;;5092034;27;19938;-67
2023/04/28 14:48:35;;;;;;;;;;;;;;;;;;5091367;27;19918;-67
2023/04/28 14:51:01;;;;;;;;;;;;;;;;;;5091550;28;19912;-67
2023/04/28 14:53:27;;;;;;;;;;;;;;;;;;5091194;28;19944;-67
2023/04/28 14:55:53;;;;;;;;;;;;;;;;;;5090630;28;19919;-67
2023/04/28 14:58:19;;;;;;;;;;;;;;;;;;5091097;28;19948;-67
2023/04/28 15:00:46;;;;;;;;;;;;;;;;;;5091060;28;19915;-67
2023/04/28 15:03:12;;;;;;;;;;;;;;;;;;5089327;28;19916;-67
2023/04/28 15:05:38;;;;;;;;;;;;;;;;;;5090927;28;19908;-67
2023/04/28 15:09:15;;;;;;;;;;;;;;;;;;5152798;27;20010;-68
2023/04/28 15:11:41;;;;;;;;;;;;;;;;;;5152798;27;19946;-67
2023/04/28 15:14:07;;;;;;;;;;;;;;;;;;5152830;27;19933;-67
2023/04/28 15:16:33;;;;;;;;;;;;;;;;;;5152708;27;20051;-68
2023/04/28 15:18:59;;;;;;;;;;;;;;;;;;5152680;27;20274;-68
2023/04/28 15:22:06;;;;;;;;;;;;;;;;;;5091942;27;19923;-68
2023/04/28 15:25:51;;;;;;;;;;;;;;;;;;5111758;27;19911;-67
2023/04/28 15:28:17;;;;;;;;;;;;;;;;;;5111474;28;19958;-68
2023/04/28 15:30:43;;;;;;;;;;;;;;;;;;5111124;28;19908;-67
2023/04/28 15:33:15;;;;;;;;;;;;;;;;;;5111542;28;19908;-67
2023/04/28 15:35:41;;;;;;;;;;;;;;;;;;5111557;28;20410;-68
2023/04/28 15:38:08;;;;;;;;;;;;;;;;;;5109877;28;19915;-68
2023/04/28 15:40:33;;;;;;;;;;;;;;;;;;5110165;28;19912;-68
2023/04/28 15:42:59;;;;;;;;;;;;;;;;;;5110092;28;19908;-68
2023/04/28 15:45:25;;;;;;;;;;;;;;;;;;5110925;28;19916;-67
2023/04/28 15:48:23;;;;;;;;;;;;;;;;;;5092113;27;19973;-67
2023/04/28 15:52:39;;;;;;;;;;;;;;;;;;5152601;27;19915;-67
2023/04/28 15:55:05;;;;;;;;;;;;;;;;;;5152755;27;19911;-67
2023/04/28 15:57:31;;;;;;;;;;;;;;;;;;5152694;27;19915;-67
2023/04/28 15:59:57;;;;;;;;;;;;;;;;;;5152340;27;19912;-67
2023/04/28 16:02:23;;;;;;;;;;;;;;;;;;5152652;27;19950;-67
2023/04/28 16:04:49;;;;;;;;;;;;;;;;;;5152714;27;19907;-67
2023/04/28 16:08:22;;;;;;;;;;;;;;;;;;5091520;27;19917;-67
2023/04/28 16:10:49;;;;;;;;;;;;;;;;;;5091497;28;20345;-67
2023/04/28 16:13:15;;;;;;;;;;;;;;;;;;5090756;28;19940;-67
2023/04/28 16:15:41;;;;;;;;;;;;;;;;;;5091894;28;20329;-67
2023/04/28 16:18:07;;;;;;;;;;;;;;;;;;5091133;28;19908;-67
2023/04/28 16:20:33;;;;;;;;;;;;;;;;;;5090628;28;19978;-67
2023/04/28 16:22:59;;;;;;;;;;;;;;;;;;5091038;28;19952;-68
2023/04/28 16:25:25;;;;;;;;;;;;;;;;;;5089686;28;19995;-69
2023/04/28 16:28:13;;;;;;;;;;;;;;;;;;5091113;27;19922;-69
2023/04/28 16:30:39;;;;;;;;;;;;;;;;;;5091265;28;19999;-67
2023/04/28 16:33:07;;;;;;;;;;;;;;;;;;5091095;28;20410;-67
2023/04/28 16:35:33;;;;;;;;;;;;;;;;;;5090730;28;20402;-67
2023/04/28 16:37:59;;;;;;;;;;;;;;;;;;5091112;28;19908;-67
2023/04/28 16:42:33;;;;;;;;;;;;;;;;;;5090842;27;20307;-69
2023/04/28 16:48:59;;;;;;;;;;;;;;;;;;5152505;27;19911;-68
2023/04/28 16:53:34;;;;;;;;;;;;;;;;;;5091359;27;19917;-67
2023/04/28 16:58:07;;;;;;;;;;;;;;;;;;5091867;27;19919;-66
2023/04/28 17:02:42;;;;;;;;;;;;;;;;;;5050622;28;20403;-68
2023/04/28 17:05:08;;;;;;;;;;;;;;;;;;5050978;28;19952;-67
2023/04/28 17:07:35;;;;;;;;;;;;;;;;;;5051177;28;19940;-67
2023/04/28 17:10:01;;;;;;;;;;;;;;;;;;5050500;28;19908;-68
2023/04/28 17:14:38;;;;;;;;;;;;;;;;;;5111730;27;19912;-66
2023/04/28 17:17:15;;;;;;;;;;;;;;;;;;5152474;27;20297;-67
2023/04/28 17:19:41;;;;;;;;;;;;;;;;;;5152779;27;20362;-67
2023/04/28 17:22:07;;;;;;;;;;;;;;;;;;5153241;27;20011;-68
2023/04/28 17:24:33;;;;;;;;;;;;;;;;;;5152247;27;19908;-67
2023/04/28 17:27:00;;;;;;;;;;;;;;;;;;5152574;27;19907;-67
2023/04/28 17:29:25;;;;;;;;;;;;;;;;;;5152645;27;19907;-68
2023/04/28 17:31:51;;;;;;;;;;;;;;;;;;5152218;27;19907;-67
2023/04/28 17:34:18;;;;;;;;;;;;;;;;;;5152399;27;19907;-67
2023/04/28 17:39:42;;;;;;;;;;;;;;;;;;5092077;27;19912;-67
2023/04/28 17:42:08;;;;;;;;;;;;;;;;;;5091209;28;19919;-67
2023/04/28 17:44:34;;;;;;;;;;;;;;;;;;5090813;28;19909;-68
2023/04/28 17:47:00;;;;;;;;;;;;;;;;;;5091326;28;19927;-67
2023/04/28 17:51:13;;;;;;;;;;;;;;;;;;5152448;27;20353;-69
2023/04/28 17:53:39;;;;;;;;;;;;;;;;;;5152807;27;19962;-68
2023/04/28 17:56:05;;;;;;;;;;;;;;;;;;5152701;27;19931;-68
2023/04/28 18:04:08;;;;;;;;;;;;;;;;;;5091831;27;19912;-68
2023/04/28 18:06:34;;;;;;;;;;;;;;;;;;5089488;28;19995;-67